Time;durP1;ratioP1;P1;durP2;ratioP2;P2;SDS_P1;SDS_P2;PMS_P1;PMS_P2;Temp;Humidity;BMP_temperature;BMP_pressure;BME280_temperature;BME280_humidity;BME280_pressure;Samples;Min_cycle;Max_cycle;Signal;HPM_P1;HPM_P2
2023/09/28 01:50:28;;;;;;;0.00;0.00;;;22.00;99.90;;;;;;5071141;27;20492;-76
2023/09/28 01:52:54;;;;;;;0.00;0.00;;;22.00;99.90;;;;;;5057998;28;20416;-76
2023/09/28 01:55:21;;;;;;;0.00;0.00;;;22.00;99.90;;;;;;5059618;28;20417;-77
2023/09/28 01:57:48;;;;;;;0.00;0.00;;;22.00;99.90;;;;;;5060785;28;20912;-79
2023/09/28 02:00:17;;;;;;;0.00;0.00;;;22.10;99.90;;;;;;5089524;28;20416;-77
2023/09/28 02:02:44;;;;;;;0.00;0.00;;;22.10;99.90;;;;;;5068735;28;20512;-77
2023/09/28 02:05:12;;;;;;;0.00;0.00;;;22.10;99.90;;;;;;5057728;28;20420;-77
2023/09/28 02:07:39;;;;;;;0.00;0.00;;;22.20;99.90;;;;;;5060815;28;20450;-77
2023/09/28 02:10:07;;;;;;;0.00;0.00;;;22.30;99.90;;;;;;5055891;28;20434;-77
2023/09/28 02:12:34;;;;;;;0.00;0.00;;;22.40;99.90;;;;;;5052708;28;20432;-77
2023/09/28 02:15:04;;;;;;;0.00;0.00;;;22.40;99.90;;;;;;5058384;28;20420;-77
2023/09/28 02:17:31;;;;;;;0.00;0.00;;;22.40;99.90;;;;;;5086118;28;20540;-77
2023/09/28 02:19:57;;;;;;;0.00;0.00;;;22.40;99.90;;;;;;5057656;28;20431;-77
2023/09/28 02:22:23;;;;;;;0.00;0.00;;;22.50;99.90;;;;;;5072864;28;20419;-77
2023/09/28 02:24:50;;;;;;;0.00;0.00;;;22.50;99.90;;;;;;5055432;28;20421;-77
2023/09/28 02:27:17;;;;;;;0.00;0.00;;;22.50;99.90;;;;;;5084375;28;21002;-77
2023/09/28 02:29:45;;;;;;;0.00;0.00;;;22.60;99.90;;;;;;5092768;28;20462;-77
2023/09/28 02:32:14;;;;;;;0.00;0.00;;;22.60;99.90;;;;;;5087212;28;20418;-77
2023/09/28 02:34:41;;;;;;;0.00;0.00;;;22.60;99.90;;;;;;5055041;28;20491;-78
2023/09/28 02:37:07;;;;;;;0.00;0.00;;;22.60;99.90;;;;;;5055483;28;21320;-78
2023/09/28 02:39:41;;;;;;;0.00;0.00;;;22.60;99.90;;;;;;5091226;28;20458;-77
2023/09/28 02:42:09;;;;;;;0.00;0.00;;;22.60;99.90;;;;;;5056916;28;21161;-78
2023/09/28 02:44:35;;;;;;;0.00;0.00;;;22.60;99.90;;;;;;5051378;28;20498;-77
2023/09/28 02:47:05;;;;;;;0.00;0.00;;;22.70;99.90;;;;;;5055721;28;20423;-77
2023/09/28 02:49:33;;;;;;;0.00;0.00;;;22.70;99.90;;;;;;5086601;28;20520;-77
2023/09/28 02:52:02;;;;;;;0.00;0.00;;;22.60;99.90;;;;;;5068240;28;20422;-77
2023/09/28 02:54:29;;;;;;;0.00;0.00;;;22.60;99.90;;;;;;5054164;28;20429;-77
2023/09/28 02:56:56;;;;;;;0.00;0.00;;;22.60;99.90;;;;;;5053924;28;20509;-77
2023/09/28 02:59:22;;;;;;;0.00;0.00;;;22.60;99.90;;;;;;5053945;28;20488;-77
2023/09/28 03:01:52;;;;;;;0.00;0.00;;;22.60;99.90;;;;;;5026609;28;20507;-77
2023/09/28 03:04:18;;;;;;;0.00;0.00;;;22.60;99.90;;;;;;5040965;28;20425;-77
2023/09/28 03:06:46;;;;;;;0.00;0.00;;;22.60;99.90;;;;;;5026391;28;20436;-77
2023/09/28 03:09:13;;;;;;;0.00;0.00;;;22.60;99.90;;;;;;5040174;28;20423;-77
2023/09/28 03:11:39;;;;;;;0.00;0.00;;;22.60;99.90;;;;;;5026798;28;20485;-77
2023/09/28 03:14:06;;;;;;;0.00;0.00;;;22.60;99.90;;;;;;5056239;28;20457;-77
2023/09/28 03:16:34;;;;;;;0.00;0.00;;;22.60;99.90;;;;;;5041214;28;20427;-77
2023/09/28 03:19:01;;;;;;;0.00;0.00;;;22.70;99.90;;;;;;5051754;28;20413;-79
2023/09/28 03:21:31;;;;;;;0.00;0.00;;;22.60;99.90;;;;;;5069134;28;20932;-78
2023/09/28 03:23:59;;;;;;;0.00;0.00;;;22.60;99.90;;;;;;5040938;28;20532;-77
2023/09/28 03:26:27;;;;;;;0.00;0.00;;;22.60;99.90;;;;;;5060767;28;20417;-77
2023/09/28 03:28:55;;;;;;;0.00;0.00;;;22.60;99.90;;;;;;5038894;28;20780;-77
2023/09/28 03:31:27;;;;;;;0.00;0.00;;;22.60;99.90;;;;;;5041452;28;21177;-77
2023/09/28 03:33:54;;;;;;;0.00;0.00;;;22.60;99.90;;;;;;5057498;28;20926;-77
2023/09/28 03:36:23;;;;;;;0.00;0.00;;;22.60;99.90;;;;;;5044897;28;20419;-78
2023/09/28 03:38:50;;;;;;;0.00;0.00;;;22.60;99.90;;;;;;5040001;28;20486;-77
2023/09/28 03:41:17;;;;;;;0.00;0.00;;;22.60;99.90;;;;;;5037277;28;20671;-77
2023/09/28 03:43:48;;;;;;;0.00;0.00;;;22.60;99.90;;;;;;5054199;28;20427;-77
2023/09/28 03:46:21;;;;;;;0.00;0.00;;;22.60;99.90;;;;;;5039847;28;20507;-78
2023/09/28 03:48:47;;;;;;;0.00;0.00;;;22.60;99.90;;;;;;5041993;28;20429;-77
2023/09/28 03:51:16;;;;;;;0.00;0.00;;;22.60;99.90;;;;;;5077029;28;20819;-76
2023/09/28 03:53:42;;;;;;;0.00;0.00;;;22.60;99.90;;;;;;5043506;28;20425;-77
2023/09/28 03:56:09;;;;;;;0.00;0.00;;;22.60;99.90;;;;;;5068827;28;20408;-77
2023/09/28 03:58:35;;;;;;;0.00;0.00;;;22.60;99.90;;;;;;5043335;28;20428;-77
2023/09/28 04:01:03;;;;;;;0.00;0.00;;;22.60;99.90;;;;;;5056658;28;20830;-77
2023/09/28 04:03:30;;;;;;;0.00;0.00;;;22.60;99.90;;;;;;5039083;28;20447;-77
2023/09/28 04:05:56;;;;;;;0.00;0.00;;;22.70;99.90;;;;;;5043273;28;20515;-77
2023/09/28 04:08:22;;;;;;;0.00;0.00;;;22.70;99.90;;;;;;5064821;28;20576;-77
2023/09/28 04:10:50;;;;;;;0.00;0.00;;;22.70;99.90;;;;;;5044262;28;20407;-77
2023/09/28 04:13:17;;;;;;;0.00;0.00;;;22.70;99.90;;;;;;5061563;28;20446;-77
2023/09/28 04:15:43;;;;;;;0.00;0.00;;;22.70;99.90;;;;;;5072601;28;20409;-77
2023/09/28 04:18:09;;;;;;;0.00;0.00;;;22.70;99.90;;;;;;5046772;28;20459;-77
2023/09/28 04:20:35;;;;;;;0.00;0.00;;;22.70;99.90;;;;;;5043645;28;20499;-77
2023/09/28 04:23:05;;;;;;;0.00;0.00;;;22.70;99.90;;;;;;5045710;28;20415;-77
2023/09/28 04:25:33;;;;;;;0.00;0.00;;;22.80;99.90;;;;;;5043571;28;20772;-77
2023/09/28 04:27:59;;;;;;;0.00;0.00;;;22.70;99.90;;;;;;5055431;28;20490;-77
2023/09/28 04:30:25;;;;;;;0.00;0.00;;;22.80;99.90;;;;;;5058877;28;20419;-77
2023/09/28 04:32:51;;;;;;;0.00;0.00;;;22.80;99.90;;;;;;5056460;28;20481;-77
2023/09/28 04:35:18;;;;;;;0.00;0.00;;;22.80;99.90;;;;;;5075950;28;20551;-77
2023/09/28 04:37:45;;;;;;;0.00;0.00;;;22.80;99.90;;;;;;5064464;28;20416;-78
2023/09/28 04:40:13;;;;;;;0.00;0.00;;;22.80;99.90;;;;;;5046167;28;20772;-79
2023/09/28 04:42:40;;;;;;;0.00;0.00;;;22.80;99.90;;;;;;5076623;28;21301;-79
2023/09/28 04:45:07;;;;;;;0.00;0.00;;;22.80;99.90;;;;;;5052276;28;20932;-79
2023/09/28 04:47:33;;;;;;;0.00;0.00;;;22.80;99.90;;;;;;5060354;28;20419;-79
2023/09/28 04:50:00;;;;;;;0.00;0.00;;;22.80;99.90;;;;;;5036408;28;20789;-79
2023/09/28 04:52:27;;;;;;;0.00;0.00;;;22.90;99.90;;;;;;5071099;28;20508;-79
2023/09/28 04:54:53;;;;;;;0.00;0.00;;;22.90;99.90;;;;;;5016691;28;20453;-79
2023/09/28 04:57:24;;;;;;;0.00;0.00;;;22.90;99.90;;;;;;5050401;28;20413;-79
2023/09/28 04:59:51;;;;;;;0.00;0.00;;;22.90;99.90;;;;;;5040760;28;20420;-79
2023/09/28 05:02:17;;;;;;;0.00;0.00;;;23.00;99.90;;;;;;5067676;28;20419;-79
2023/09/28 05:04:43;;;;;;;0.00;0.00;;;23.00;99.90;;;;;;5048252;28;20422;-79
2023/09/28 05:07:10;;;;;;;0.00;0.00;;;23.00;99.90;;;;;;5015045;28;20416;-79
2023/09/28 05:09:38;;;;;;;0.00;0.00;;;23.00;99.90;;;;;;5054915;28;20499;-79
2023/09/28 05:12:05;;;;;;;0.00;0.00;;;23.10;99.90;;;;;;5017955;28;20413;-79
2023/09/28 05:14:31;;;;;;;0.00;0.00;;;23.10;99.90;;;;;;5037014;28;20494;-79
2023/09/28 05:16:57;;;;;;;0.00;0.00;;;23.10;99.90;;;;;;5034436;28;20417;-79
2023/09/28 05:19:25;;;;;;;0.00;0.00;;;23.20;99.90;;;;;;5031255;28;20421;-79
2023/09/28 05:21:51;;;;;;;0.00;0.00;;;23.20;99.90;;;;;;5035183;28;20785;-79
2023/09/28 05:24:17;;;;;;;0.00;0.00;;;23.20;99.90;;;;;;5067487;28;20412;-79
2023/09/28 05:26:44;;;;;;;0.00;0.00;;;23.30;99.90;;;;;;5035359;28;20416;-79
2023/09/28 05:29:10;;;;;;;0.00;0.00;;;23.30;99.90;;;;;;5035908;28;20427;-79
2023/09/28 05:31:36;;;;;;;0.00;0.00;;;23.30;99.90;;;;;;5070357;28;20411;-79
2023/09/28 05:34:03;;;;;;;0.00;0.00;;;23.40;99.90;;;;;;5037694;28;20495;-79
2023/09/28 05:36:29;;;;;;;0.00;0.00;;;23.40;99.90;;;;;;5034828;28;20478;-79
2023/09/28 05:38:56;;;;;;;0.00;0.00;;;23.50;99.90;;;;;;5035811;28;21014;-79
2023/09/28 05:41:22;;;;;;;0.00;0.00;;;23.50;99.90;;;;;;5055768;28;20567;-80
2023/09/28 05:43:48;;;;;;;0.00;0.00;;;23.50;99.90;;;;;;5047978;28;20533;-79
2023/09/28 05:46:15;;;;;;;0.00;0.00;;;23.60;99.90;;;;;;5030275;28;20423;-79
2023/09/28 05:48:41;;;;;;;0.00;0.00;;;23.60;99.90;;;;;;5045840;28;20941;-79
2023/09/28 05:51:07;;;;;;;0.00;0.00;;;23.60;99.90;;;;;;5054172;28;20442;-79
2023/09/28 05:53:33;;;;;;;0.00;0.00;;;23.70;99.90;;;;;;5039791;28;20529;-79
2023/09/28 05:56:00;;;;;;;0.00;0.00;;;23.70;99.90;;;;;;5054492;28;20408;-79
2023/09/28 05:58:27;;;;;;;0.00;0.00;;;23.80;99.90;;;;;;5055688;28;20493;-79
2023/09/28 06:00:53;;;;;;;0.00;0.00;;;23.80;99.90;;;;;;5037926;28;20407;-79
2023/09/28 06:03:19;;;;;;;0.00;0.00;;;23.90;99.90;;;;;;5022619;28;20413;-79
2023/09/28 06:05:46;;;;;;;0.00;0.00;;;24.00;99.90;;;;;;5027248;28;20403;-80
2023/09/28 06:08:12;;;;;;;0.00;0.00;;;24.10;99.90;;;;;;5038919;28;20402;-80
2023/09/28 06:10:39;;;;;;;0.00;0.00;;;24.20;99.90;;;;;;5038833;28;20416;-80
2023/09/28 06:13:05;;;;;;;0.00;0.00;;;24.30;99.90;;;;;;5023585;28;20422;-80
2023/09/28 06:15:32;;;;;;;0.00;0.00;;;24.40;99.90;;;;;;5054533;28;20503;-79
2023/09/28 06:17:58;;;;;;;0.00;0.00;;;24.50;99.90;;;;;;5056801;28;20796;-80
2023/09/28 17:28:37;;;;;;;0.00;0.00;;;24.60;99.90;;;;;;5071388;27;20708;-80
2023/09/28 17:31:04;;;;;;;0.00;0.00;;;24.60;99.90;;;;;;5056444;28;20410;-80
2023/09/28 17:33:31;;;;;;;0.00;0.00;;;24.60;99.90;;;;;;5058754;28;20400;-80
2023/09/28 17:35:57;;;;;;;0.00;0.00;;;24.60;99.90;;;;;;5049592;28;20905;-80
2023/09/28 17:38:24;;;;;;;0.00;0.00;;;24.70;99.90;;;;;;5055286;28;20447;-80
2023/09/28 17:40:56;;;;;;;0.00;0.00;;;24.70;99.90;;;;;;5051752;28;20849;-80
2023/09/28 17:43:22;;;;;;;0.00;0.00;;;24.70;99.90;;;;;;5053049;28;20414;-80
2023/09/28 17:45:48;;;;;;;0.00;0.00;;;24.70;99.90;;;;;;5050808;28;20458;-80
2023/09/28 17:48:15;;;;;;;0.00;0.00;;;24.70;99.90;;;;;;5082443;28;21042;-80
2023/09/28 17:50:41;;;;;;;0.00;0.00;;;24.70;99.90;;;;;;5052418;28;20668;-80
2023/09/28 17:53:08;;;;;;;0.00;0.00;;;24.70;99.90;;;;;;5071982;28;20770;-80
2023/09/28 17:55:36;;;;;;;0.00;0.00;;;24.70;99.90;;;;;;5070588;28;20433;-80
2023/09/28 17:58:03;;;;;;;0.00;0.00;;;24.70;99.90;;;;;;5054624;28;20419;-80
2023/09/28 18:00:30;;;;;;;0.00;0.00;;;24.60;99.90;;;;;;5051617;28;20410;-79
2023/09/28 18:03:03;;;;;;;0.00;0.00;;;24.70;99.90;;;;;;5050014;28;20407;-79
2023/09/28 18:05:31;;;;;;;0.00;0.00;;;24.70;99.90;;;;;;5051369;28;20900;-80
2023/09/28 18:07:58;;;;;;;0.00;0.00;;;24.50;99.90;;;;;;5050217;28;20422;-80
2023/09/28 18:10:24;;;;;;;0.00;0.00;;;24.50;99.90;;;;;;5064868;28;20433;-81
2023/09/28 18:12:50;;;;;;;0.00;0.00;;;24.60;99.90;;;;;;5053055;28;20588;-80
2023/09/28 18:15:19;;;;;;;0.00;0.00;;;24.70;99.90;;;;;;5071394;28;20446;-80
2023/09/28 18:17:46;;;;;;;0.00;0.00;;;24.60;99.90;;;;;;5069427;28;20425;-81
2023/09/28 18:20:15;;;;;;;0.00;0.00;;;24.70;99.90;;;;;;5051018;28;21081;-81
2023/09/28 18:22:42;;;;;;;0.00;0.00;;;24.60;99.90;;;;;;5053588;28;20418;-81
2023/09/28 18:25:09;;;;;;;0.00;0.00;;;24.50;99.90;;;;;;5055434;28;20482;-80
2023/09/28 18:27:38;;;;;;;0.00;0.00;;;24.50;99.90;;;;;;5063405;28;21152;-80
2023/09/28 18:30:09;;;;;;;0.00;0.00;;;24.50;99.90;;;;;;5051252;28;20427;-80
2023/09/28 18:32:40;;;;;;;0.00;0.00;;;24.50;99.90;;;;;;5083474;28;20421;-80
2023/09/28 18:35:08;;;;;;;0.00;0.00;;;24.50;99.90;;;;;;5053564;28;20480;-80
2023/09/28 18:37:34;;;;;;;0.00;0.00;;;24.50;99.90;;;;;;5081343;28;21563;-80
2023/09/28 18:40:05;;;;;;;0.00;0.00;;;24.40;99.90;;;;;;5042656;28;20423;-80
2023/09/28 18:42:32;;;;;;;0.00;0.00;;;24.40;99.90;;;;;;5039814;28;20512;-80
2023/09/28 18:44:58;;;;;;;0.00;0.00;;;24.30;99.90;;;;;;5049474;28;20412;-80
2023/09/28 18:47:25;;;;;;;0.00;0.00;;;24.30;99.90;;;;;;5032720;28;20426;-80
2023/09/28 18:49:55;;;;;;;0.00;0.00;;;24.20;99.90;;;;;;5034721;28;20506;-80
2023/09/28 18:52:22;;;;;;;0.00;0.00;;;24.10;99.90;;;;;;5037741;28;22306;-80
2023/09/28 18:54:48;;;;;;;0.00;0.00;;;24.10;99.90;;;;;;5068793;28;20413;-80
2023/09/28 18:57:20;;;;;;;0.00;0.00;;;24.10;99.90;;;;;;5032701;28;20456;-80
2023/09/28 19:00:03;;;;;;;0.00;0.00;;;24.10;99.90;;;;;;5037884;28;20517;-80
2023/09/28 19:02:29;;;;;;;0.00;0.00;;;24.00;99.90;;;;;;5038756;28;20414;-80
2023/09/28 19:04:55;;;;;;;0.00;0.00;;;24.10;99.90;;;;;;5035527;28;20506;-80
2023/09/28 19:07:37;;;;;;;0.00;0.00;;;24.00;99.90;;;;;;5039796;28;20421;-81
2023/09/28 19:10:04;;;;;;;0.00;0.00;;;23.90;99.90;;;;;;5036256;28;20528;-80
2023/09/28 19:12:30;;;;;;;0.00;0.00;;;23.90;99.90;;;;;;5037888;28;20461;-80
2023/09/28 19:14:57;;;;;;;0.00;0.00;;;23.80;99.90;;;;;;5040107;28;20417;-80
2023/09/28 19:17:23;;;;;;;0.00;0.00;;;23.80;99.90;;;;;;5036440;28;20421;-80
2023/09/28 19:20:05;;;;;;;0.00;0.00;;;23.80;99.90;;;;;;5040989;28;20533;-81
2023/09/28 19:22:32;;;;;;;0.00;0.00;;;23.80;99.90;;;;;;5033507;28;20416;-80
2023/09/28 19:24:58;;;;;;;0.00;0.00;;;23.70;99.90;;;;;;5015507;28;20423;-81
2023/09/28 19:27:29;;;;;;;0.00;0.00;;;23.60;99.90;;;;;;5018136;28;20427;-80
2023/09/28 19:29:56;;;;;;;0.00;0.00;;;23.70;99.90;;;;;;5021022;28;20484;-80
2023/09/28 19:32:25;;;;;;;0.00;0.00;;;23.70;99.90;;;;;;5019217;28;20839;-80
2023/09/28 19:34:51;;;;;;;0.00;0.00;;;23.60;99.90;;;;;;5065305;28;20768;-80
2023/09/28 19:37:18;;;;;;;0.00;0.00;;;23.60;99.90;;;;;;5035397;28;20441;-80
2023/09/28 19:39:44;;;;;;;0.00;0.00;;;23.60;99.90;;;;;;5036576;28;20424;-80
2023/09/28 19:42:10;;;;;;;0.00;0.00;;;23.50;99.90;;;;;;5067134;28;20516;-80
2023/09/28 19:44:36;;;;;;;0.00;0.00;;;23.50;99.90;;;;;;5038181;28;20817;-80
2023/09/28 19:47:03;;;;;;;0.00;0.00;;;23.50;99.90;;;;;;5038936;28;20417;-80
2023/09/28 19:49:34;;;;;;;0.00;0.00;;;23.50;99.90;;;;;;5030262;28;20428;-80
2023/09/28 19:52:00;;;;;;;0.00;0.00;;;23.40;99.90;;;;;;5035869;28;20490;-80
2023/09/28 19:54:26;;;;;;;0.00;0.00;;;23.40;99.90;;;;;;5018890;28;20417;-80
2023/09/28 19:56:56;;;;;;;0.00;0.00;;;23.50;99.90;;;;;;5031527;28;20420;-80
2023/09/28 19:59:27;;;;;;;0.00;0.00;;;23.50;99.90;;;;;;5033850;28;21206;-80
2023/09/28 20:01:53;;;;;;;0.00;0.00;;;23.50;99.90;;;;;;5035091;28;20541;-80
2023/09/28 20:04:23;;;;;;;0.00;0.00;;;23.50;99.90;;;;;;5036171;28;20411;-80
2023/09/28 20:06:52;;;;;;;0.00;0.00;;;23.50;99.90;;;;;;5019653;28;20424;-79
2023/09/28 20:09:19;;;;;;;0.00;0.00;;;23.50;99.90;;;;;;5049792;28;20516;-80
2023/09/28 20:11:55;;;;;;;0.00;0.00;;;23.50;99.90;;;;;;5032583;28;20555;-80
2023/09/28 20:14:24;;;;;;;0.00;0.00;;;23.50;99.90;;;;;;5020186;28;20415;-78
2023/09/28 20:16:51;;;;;;;0.00;0.00;;;23.50;99.90;;;;;;5035834;28;20421;-79
2023/09/28 20:19:17;;;;;;;0.00;0.00;;;23.60;99.90;;;;;;5053438;28;20497;-79
2023/09/28 20:21:43;;;;;;;0.00;0.00;;;23.60;99.90;;;;;;5036556;28;20499;-78
2023/09/28 20:24:16;;;;;;;0.00;0.00;;;23.60;99.90;;;;;;5039964;28;20856;-79
2023/09/28 20:26:48;;;;;;;0.00;0.00;;;23.60;99.90;;;;;;5037741;28;20445;-79
2023/09/28 20:29:15;;;;;;;0.00;0.00;;;23.50;99.90;;;;;;5051057;28;20424;-79
2023/09/28 20:31:42;;;;;;;0.00;0.00;;;23.50;99.90;;;;;;5034178;28;20428;-79
2023/09/28 20:34:08;;;;;;;0.00;0.00;;;23.50;99.90;;;;;;5031170;28;20419;-79
2023/09/28 20:36:55;;;;;;;0.00;0.00;;;23.30;99.90;;;;;;5049875;28;20409;-79
2023/09/28 20:39:24;;;;;;;0.00;0.00;;;23.10;99.90;;;;;;5065182;28;20418;-79
2023/09/28 20:42:17;;;;;;;0.00;0.00;;;23.00;99.90;;;;;;5029532;28;20419;-79
2023/09/28 20:44:55;;;;;;;0.00;0.00;;;23.00;99.90;;;;;;5034760;28;20957;-79
2023/09/28 20:47:22;;;;;;;0.00;0.00;;;23.00;99.90;;;;;;5046700;28;20417;-79
2023/09/28 20:49:48;;;;;;;0.00;0.00;;;23.10;99.90;;;;;;5028038;28;20422;-79
2023/09/28 20:52:18;;;;;;;0.00;0.00;;;23.10;99.90;;;;;;5033185;28;20437;-79
2023/09/28 20:54:45;;;;;;;0.00;0.00;;;23.10;99.90;;;;;;5036864;28;20430;-79
2023/09/28 20:57:11;;;;;;;0.00;0.00;;;23.10;99.90;;;;;;5052556;28;20478;-79
2023/09/28 20:59:37;;;;;;;0.00;0.00;;;23.10;99.90;;;;;;5022620;28;20440;-80
2023/09/28 21:02:05;;;;;;;0.00;0.00;;;23.10;99.90;;;;;;5051894;28;20490;-79
2023/09/28 21:04:33;;;;;;;0.00;0.00;;;23.10;99.90;;;;;;5047954;28;20407;-79
2023/09/28 21:07:02;;;;;;;0.00;0.00;;;23.20;99.90;;;;;;5052041;28;20513;-79
2023/09/28 21:09:28;;;;;;;0.00;0.00;;;23.10;99.90;;;;;;5032666;28;20681;-79
2023/09/28 21:11:55;;;;;;;0.00;0.00;;;23.10;99.90;;;;;;5037749;28;20459;-79
2023/09/28 21:14:22;;;;;;;0.00;0.00;;;23.10;99.90;;;;;;5033451;28;20502;-79
2023/09/28 21:16:48;;;;;;;0.00;0.00;;;23.10;99.90;;;;;;5034278;28;21256;-79
2023/09/28 21:19:17;;;;;;;0.00;0.00;;;23.10;99.90;;;;;;5020481;28;20435;-79
2023/09/28 21:21:43;;;;;;;0.00;0.00;;;23.10;99.90;;;;;;5022165;28;20405;-79
2023/09/28 21:24:13;;;;;;;0.00;0.00;;;23.10;99.90;;;;;;5035734;28;20454;-79
2023/09/28 21:26:39;;;;;;;0.00;0.00;;;23.10;99.90;;;;;;5038419;28;20413;-79
2023/09/28 21:29:06;;;;;;;0.00;0.00;;;23.00;99.90;;;;;;5036224;28;20421;-79
2023/09/28 21:31:32;;;;;;;0.00;0.00;;;23.00;99.90;;;;;;5035952;28;20512;-79
2023/09/28 21:33:59;;;;;;;0.00;0.00;;;23.00;99.90;;;;;;5065563;28;21304;-79
2023/09/28 21:36:25;;;;;;;0.00;0.00;;;23.00;99.90;;;;;;5039067;28;21053;-79
2023/09/28 21:38:51;;;;;;;0.00;0.00;;;23.00;99.90;;;;;;5035473;28;20418;-79
2023/09/28 21:41:18;;;;;;;0.00;0.00;;;23.00;99.90;;;;;;5036610;28;20413;-79
2023/09/28 21:43:45;;;;;;;0.00;0.00;;;22.90;99.90;;;;;;5031267;28;20428;-79
2023/09/28 21:46:21;;;;;;;0.00;0.00;;;22.90;99.90;;;;;;5036216;28;20428;-79
2023/09/28 21:48:50;;;;;;;0.00;0.00;;;22.90;99.90;;;;;;5018267;28;20494;-80
2023/09/28 21:51:18;;;;;;;0.00;0.00;;;22.90;99.90;;;;;;5051972;28;20490;-80
2023/09/28 21:53:48;;;;;;;0.00;0.00;;;22.90;99.90;;;;;;5066259;28;20428;-79
2023/09/28 21:56:18;;;;;;;0.00;0.00;;;22.90;99.90;;;;;;5032535;28;20495;-79
2023/09/28 21:58:45;;;;;;;0.00;0.00;;;22.90;99.90;;;;;;5038278;28;20421;-79
2023/09/28 22:01:16;;;;;;;0.00;0.00;;;22.90;99.90;;;;;;5020124;28;20487;-79
2023/09/28 22:03:45;;;;;;;0.00;0.00;;;22.90;99.90;;;;;;5048396;28;20417;-79
2023/09/28 22:06:11;;;;;;;0.00;0.00;;;22.80;99.90;;;;;;5060765;28;20905;-77
2023/09/28 22:08:38;;;;;;;0.00;0.00;;;22.80;99.90;;;;;;5050836;28;21683;-78
2023/09/28 22:11:06;;;;;;;0.00;0.00;;;22.80;99.90;;;;;;5031729;28;20434;-77
2023/09/28 22:13:33;;;;;;;0.00;0.00;;;22.80;99.90;;;;;;5017961;28;20418;-77
2023/09/28 22:15:59;;;;;;;0.00;0.00;;;22.70;99.90;;;;;;5015639;28;20746;-77
2023/09/28 22:18:26;;;;;;;0.00;0.00;;;22.70;99.90;;;;;;5051828;28;20432;-77
2023/09/28 22:20:52;;;;;;;0.00;0.00;;;22.70;99.90;;;;;;5052556;28;20438;-77
2023/09/28 22:23:18;;;;;;;0.00;0.00;;;22.70;99.90;;;;;;5036203;28;21022;-77
2023/09/28 22:25:44;;;;;;;0.00;0.00;;;22.70;99.90;;;;;;5019822;28;21157;-77
2023/09/28 22:28:11;;;;;;;0.00;0.00;;;22.60;99.90;;;;;;5040580;28;20870;-78
2023/09/28 22:30:37;;;;;;;0.00;0.00;;;22.60;99.90;;;;;;5020015;28;20429;-78
2023/09/28 22:33:04;;;;;;;0.00;0.00;;;22.60;99.90;;;;;;5037970;28;20411;-78
2023/09/28 22:35:30;;;;;;;0.00;0.00;;;22.60;99.90;;;;;;5037894;28;21093;-78
2023/09/28 22:37:57;;;;;;;0.00;0.00;;;22.60;99.90;;;;;;5050686;28;21100;-77
2023/09/28 22:40:23;;;;;;;0.00;0.00;;;22.50;99.90;;;;;;5021759;28;20414;-78
2023/09/28 22:42:50;;;;;;;0.00;0.00;;;22.40;99.90;;;;;;5029690;28;20942;-77
2023/09/28 22:45:16;;;;;;;0.00;0.00;;;22.40;99.90;;;;;;5042724;28;20482;-78
2023/09/28 22:47:42;;;;;;;0.00;0.00;;;22.40;99.90;;;;;;5051973;28;20448;-77
2023/09/28 22:50:11;;;;;;;0.00;0.00;;;22.50;99.90;;;;;;5018211;28;20844;-77
2023/09/28 22:52:37;;;;;;;0.00;0.00;;;22.50;99.90;;;;;;5030932;28;20415;-77
2023/09/28 22:55:04;;;;;;;0.00;0.00;;;22.60;99.90;;;;;;5060650;28;20413;-77
2023/09/28 22:57:31;;;;;;;0.00;0.00;;;22.50;99.90;;;;;;5064648;28;20501;-77
2023/09/28 22:59:58;;;;;;;0.00;0.00;;;22.60;99.90;;;;;;5040329;28;20462;-77
2023/09/28 23:02:24;;;;;;;0.00;0.00;;;22.60;99.90;;;;;;5053523;28;20423;-77
2023/09/28 23:04:52;;;;;;;0.00;0.00;;;22.70;99.90;;;;;;5034241;28;21295;-77
2023/09/28 23:07:21;;;;;;;0.00;0.00;;;22.70;99.90;;;;;;5020601;28;20413;-76
2023/09/28 23:09:48;;;;;;;0.00;0.00;;;22.70;99.90;;;;;;5060166;28;20790;-76
2023/09/28 23:12:15;;;;;;;0.00;0.00;;;22.90;99.90;;;;;;5036520;28;21005;-76
2023/09/28 23:14:41;;;;;;;0.00;0.00;;;23.00;99.90;;;;;;5046502;28;20431;-77
2023/09/28 23:17:08;;;;;;;0.00;0.00;;;23.00;99.90;;;;;;5039609;28;20419;-77
2023/09/28 23:19:35;;;;;;;0.00;0.00;;;23.00;99.90;;;;;;5032049;28;20432;-76
2023/09/28 23:22:03;;;;;;;0.00;0.00;;;23.00;99.90;;;;;;5039332;28;21121;-77
2023/09/28 23:24:31;;;;;;;0.00;0.00;;;23.10;99.90;;;;;;5070396;28;20437;-77
2023/09/28 23:26:57;;;;;;;0.00;0.00;;;23.10;99.90;;;;;;5020263;28;21060;-77
2023/09/28 23:29:25;;;;;;;0.00;0.00;;;23.10;99.90;;;;;;5048039;28;20437;-77
2023/09/28 23:31:52;;;;;;;0.00;0.00;;;23.10;99.90;;;;;;5044268;28;20418;-78
2023/09/28 23:34:20;;;;;;;0.00;0.00;;;23.10;99.90;;;;;;5041363;28;20423;-77
2023/09/28 23:36:47;;;;;;;0.00;0.00;;;23.20;99.90;;;;;;5035249;28;20421;-77
2023/09/28 23:39:14;;;;;;;0.00;0.00;;;23.20;99.90;;;;;;5062836;28;20824;-78
2023/09/28 23:41:44;;;;;;;0.00;0.00;;;23.20;99.90;;;;;;5056551;28;20418;-77
2023/09/28 23:44:12;;;;;;;0.00;0.00;;;23.30;99.90;;;;;;5040838;28;21241;-78
2023/09/28 23:46:41;;;;;;;0.00;0.00;;;23.30;99.90;;;;;;5056347;28;20417;-78
2023/09/28 23:49:12;;;;;;;0.00;0.00;;;23.30;99.90;;;;;;5036387;28;20402;-78
2023/09/28 23:51:39;;;;;;;0.00;0.00;;;23.30;99.90;;;;;;5051003;28;20799;-78
2023/09/28 23:54:09;;;;;;;0.00;0.00;;;23.30;99.90;;;;;;5051977;28;20498;-78
2023/09/28 23:56:40;;;;;;;0.00;0.00;;;23.30;99.90;;;;;;5069645;28;20424;-78
2023/09/28 23:59:14;;;;;;;0.00;0.00;;;23.30;99.90;;;;;;5040509;28;20455;-77
